createdAt,value
2023-01-10T00:01:53.098Z,5.00
2023-01-10T00:04:19.917Z,5.10
2023-01-10T00:06:46.884Z,5.10
2023-01-10T00:09:13.818Z,5.10
2023-01-10T00:11:59.321Z,5.00
2023-01-10T00:14:30.440Z,5.10
2023-01-10T00:16:57.376Z,4.90
2023-01-10T00:19:24.643Z,5.00
2023-01-10T00:21:51.420Z,5.10
2023-01-10T00:24:22.223Z,5.10
2023-01-10T00:26:53.175Z,5.10
2023-01-10T00:29:21.069Z,5.20
2023-01-10T00:31:48.371Z,5.10
2023-01-10T00:34:15.280Z,5.10
2023-01-10T00:36:42.489Z,5.10
2023-01-10T00:39:11.213Z,5.10
2023-01-10T00:41:56.378Z,5.20
2023-01-10T00:44:23.331Z,5.10
2023-01-10T00:46:50.277Z,5.10
2023-01-10T00:49:17.585Z,5.10
2023-01-10T00:51:45.059Z,5.20
2023-01-10T00:54:12.804Z,5.00
2023-01-10T00:56:39.852Z,5.00
2023-01-10T00:59:07.235Z,5.10
2023-01-10T01:01:34.243Z,5.10
2023-01-10T01:04:01.189Z,5.10
2023-01-10T01:06:28.060Z,5.10
2023-01-10T01:08:55.010Z,5.00
2023-01-10T01:11:21.902Z,5.00
2023-01-10T01:13:48.702Z,5.00
2023-01-10T01:16:15.678Z,5.00
2023-01-10T01:18:42.491Z,5.10
2023-01-10T01:21:09.403Z,5.10
2023-01-10T01:23:36.283Z,5.10
2023-01-10T01:26:03.312Z,5.10
2023-01-10T01:28:30.139Z,5.10
2023-01-10T01:30:56.962Z,5.10
2023-01-10T01:33:24.162Z,5.20
2023-01-10T01:35:51.180Z,5.20
2023-01-10T01:38:18.060Z,5.10
2023-01-10T01:40:45.161Z,5.00
2023-01-10T01:43:21.777Z,5.00
2023-01-10T01:45:48.772Z,5.10
2023-01-10T01:48:18.815Z,5.10
2023-01-10T01:51:07.818Z,5.10
2023-01-10T01:53:52.357Z,5.10
2023-01-10T01:56:25.867Z,5.00
2023-01-10T01:59:11.657Z,5.10
2023-01-10T02:01:39.995Z,5.10
2023-01-10T02:04:18.422Z,5.10
2023-01-10T02:06:46.750Z,5.10
2023-01-10T02:09:22.111Z,5.10
2023-01-10T02:11:49.139Z,5.10
2023-01-10T02:14:16.480Z,5.30
2023-01-10T02:16:43.442Z,5.20
2023-01-10T02:19:18.464Z,5.30
2023-01-10T02:21:57.380Z,5.30
2023-01-10T02:24:53.594Z,5.20
2023-01-10T02:27:24.711Z,5.30
2023-01-10T02:30:14.697Z,5.30
2023-01-10T02:32:50.517Z,5.20
2023-01-10T02:35:23.467Z,5.20
2023-01-10T02:37:50.232Z,5.20
2023-01-10T02:40:22.979Z,5.20
2023-01-10T02:42:56.502Z,5.20
2023-01-10T02:45:26.446Z,5.10
2023-01-10T02:47:53.280Z,5.20
2023-01-10T02:50:38.862Z,5.10
2023-01-10T02:53:24.512Z,5.10
2023-01-10T02:56:00.649Z,5.00
2023-01-10T02:58:46.224Z,5.10
2023-01-10T03:01:16.911Z,5.10
2023-01-10T03:04:07.199Z,5.10
2023-01-10T03:06:42.943Z,5.00
2023-01-10T03:09:12.677Z,5.00
2023-01-10T03:11:41.243Z,5.10
2023-01-10T03:14:16.187Z,5.00
2023-01-10T03:16:46.188Z,5.10
2023-01-10T03:19:15.696Z,5.10
2023-01-10T03:21:43.286Z,5.10
2023-01-10T03:24:16.220Z,5.00
2023-01-10T03:27:09.380Z,5.10
2023-01-10T03:29:43.603Z,5.10
2023-01-10T03:32:13.021Z,5.10
2023-01-10T03:34:40.710Z,5.00
2023-01-10T03:37:16.846Z,5.00
2023-01-10T03:40:02.239Z,5.00
2023-01-10T03:42:51.832Z,5.00
2023-01-10T03:45:21.809Z,5.10
2023-01-10T03:47:51.067Z,5.10
2023-01-10T03:50:20.059Z,5.00
2023-01-10T03:52:47.274Z,4.90
2023-01-10T03:55:15.517Z,4.80
2023-01-10T03:57:45.963Z,4.70
2023-01-10T04:00:14.002Z,4.70
2023-01-10T04:02:40.860Z,4.70
2023-01-10T04:05:08.260Z,4.70
2023-01-10T04:07:35.129Z,4.60
2023-01-10T04:10:02.032Z,4.50
2023-01-10T04:12:28.852Z,4.40
2023-01-10T04:14:55.880Z,4.30
2023-01-10T04:17:22.921Z,4.30
2023-01-10T04:19:49.744Z,4.30
2023-01-10T04:22:16.761Z,4.30
2023-01-10T04:24:44.381Z,4.30
2023-01-10T04:27:11.316Z,4.50
2023-01-10T04:29:38.213Z,4.60
2023-01-10T04:32:05.141Z,4.60
2023-01-10T04:34:32.039Z,4.70
2023-01-10T04:36:58.897Z,4.70
2023-01-10T04:39:25.688Z,4.70
2023-01-10T04:41:52.600Z,4.70
2023-01-10T04:44:19.442Z,4.60
2023-01-10T04:46:46.564Z,4.60
2023-01-10T04:49:13.475Z,4.70
2023-01-10T04:51:40.775Z,4.60
2023-01-10T04:54:07.672Z,4.60
2023-01-10T04:56:34.456Z,4.60
2023-01-10T04:59:01.301Z,4.60
2023-01-10T05:01:28.390Z,4.80
2023-01-10T05:03:55.743Z,4.80
2023-01-10T05:06:23.467Z,4.80
2023-01-10T05:08:50.366Z,4.70
2023-01-10T05:11:17.128Z,4.70
2023-01-10T05:13:44.825Z,4.80
2023-01-10T05:16:12.306Z,4.70
2023-01-10T05:18:39.152Z,4.80
2023-01-10T05:21:07.487Z,4.80
2023-01-10T05:23:34.442Z,4.80
2023-01-10T05:26:10.597Z,4.80
2023-01-10T05:28:38.094Z,4.90
2023-01-10T05:31:23.265Z,4.90
2023-01-10T05:33:51.987Z,4.90
2023-01-10T05:36:19.225Z,4.90
2023-01-10T05:38:46.331Z,4.80
2023-01-10T05:41:13.168Z,4.90
2023-01-10T05:43:40.072Z,4.90
2023-01-10T05:46:07.051Z,4.80
2023-01-10T05:48:34.000Z,4.80
2023-01-10T05:51:00.910Z,4.80
2023-01-10T05:53:27.973Z,4.70
2023-01-10T05:55:54.865Z,4.70
2023-01-10T05:58:21.941Z,4.80
2023-01-10T06:00:48.896Z,4.80
2023-01-10T06:03:15.786Z,4.90
2023-01-10T06:05:43.042Z,4.80
2023-01-10T06:08:09.936Z,4.80
2023-01-10T06:10:36.747Z,4.90
2023-01-10T06:13:05.251Z,4.90
2023-01-10T06:15:32.697Z,4.80
2023-01-10T06:17:59.677Z,4.90
2023-01-10T06:20:26.561Z,4.70
2023-01-10T06:22:53.755Z,4.80
2023-01-10T06:25:20.812Z,4.80
2023-01-10T06:27:47.649Z,4.80
2023-01-10T06:30:14.864Z,4.80
2023-01-10T06:32:42.503Z,4.80
2023-01-10T06:35:09.890Z,4.80
2023-01-10T06:37:36.904Z,4.90
2023-01-10T06:40:04.379Z,4.90
2023-01-10T06:42:31.343Z,4.80
2023-01-10T06:44:58.171Z,4.80
2023-01-10T06:47:25.259Z,4.70
2023-01-10T06:49:52.212Z,4.80
2023-01-10T06:52:19.162Z,4.80
2023-01-10T06:54:46.209Z,4.70
2023-01-10T06:57:13.074Z,4.70
2023-01-10T06:59:40.032Z,4.70
2023-01-10T07:02:06.983Z,4.60
2023-01-10T07:04:34.037Z,4.70
2023-01-10T07:07:01.038Z,4.70
2023-01-10T07:09:28.300Z,4.50
2023-01-10T07:11:55.574Z,4.60
2023-01-10T07:14:22.502Z,4.70
2023-01-10T07:16:49.557Z,4.80
2023-01-10T07:19:17.699Z,4.80
2023-01-10T07:21:44.884Z,4.90
2023-01-10T07:24:11.822Z,4.80
2023-01-10T07:26:38.823Z,4.80
2023-01-10T07:29:05.849Z,4.90
2023-01-10T07:31:32.769Z,4.90
2023-01-10T07:33:59.677Z,5.00
2023-01-10T07:36:26.531Z,4.90
2023-01-10T07:38:53.547Z,5.00
2023-01-10T07:41:20.397Z,5.00
2023-01-10T07:43:48.802Z,5.00
2023-01-10T07:46:15.992Z,5.00
2023-01-10T07:48:42.938Z,5.10
2023-01-10T07:51:09.914Z,5.10
2023-01-10T07:53:36.742Z,5.10
2023-01-10T07:56:04.140Z,5.10
2023-01-10T07:58:31.255Z,5.10
2023-01-10T08:00:59.019Z,5.20
2023-01-10T08:03:26.674Z,5.30
2023-01-10T08:06:06.837Z,5.30
2023-01-10T08:08:34.952Z,5.30
2023-01-10T08:11:02.750Z,5.30
2023-01-10T08:13:30.162Z,5.40
2023-01-10T08:15:57.513Z,5.40
2023-01-10T08:18:24.877Z,5.40
2023-01-10T08:20:52.660Z,5.40
2023-01-10T08:23:19.929Z,5.50
2023-01-10T08:25:47.003Z,5.50
2023-01-10T08:28:14.231Z,5.50
2023-01-10T08:30:41.189Z,5.50
2023-01-10T08:33:08.641Z,5.50
2023-01-10T08:35:39.355Z,5.60
2023-01-10T08:38:06.257Z,5.60
2023-01-10T08:40:33.384Z,5.70
2023-01-10T08:43:01.031Z,5.70
2023-01-10T08:45:27.895Z,5.70
2023-01-10T08:47:54.988Z,5.80
2023-01-10T08:50:22.300Z,5.80
2023-01-10T08:52:49.329Z,5.80
2023-01-10T08:55:16.195Z,5.90
2023-01-10T08:57:43.043Z,5.80
2023-01-10T09:00:10.316Z,5.90
2023-01-10T09:02:37.199Z,6.10
2023-01-10T09:05:06.269Z,6.50
2023-01-10T09:07:33.330Z,6.50
2023-01-10T09:10:00.164Z,7.40
2023-01-10T09:12:45.682Z,8.50
2023-01-10T09:15:12.643Z,8.10
2023-01-10T09:17:39.579Z,7.20
2023-01-10T09:20:09.993Z,6.80
2023-01-10T09:22:40.066Z,6.90
2023-01-10T09:25:07.169Z,7.20
2023-01-10T09:27:34.005Z,7.10
2023-01-10T09:30:00.934Z,6.90
2023-01-10T09:32:27.854Z,7.00
2023-01-10T09:34:54.719Z,6.90
2023-01-10T09:37:21.599Z,7.10
2023-01-10T09:39:48.503Z,7.10
2023-01-10T09:42:38.547Z,7.10
2023-01-10T09:45:28.657Z,7.10
2023-01-10T09:48:03.695Z,7.00
2023-01-10T09:50:48.854Z,7.00
2023-01-10T09:53:18.824Z,7.00
2023-01-10T09:55:48.740Z,6.90
2023-01-10T09:58:17.765Z,6.80
2023-01-10T10:00:51.033Z,6.90
2023-01-10T10:03:41.475Z,6.80
2023-01-10T10:06:12.859Z,7.00
2023-01-10T10:08:41.049Z,7.20
2023-01-10T10:11:26.128Z,7.40
2023-01-10T10:14:08.062Z,7.60
2023-01-10T10:16:41.218Z,7.50
2023-01-10T10:19:13.919Z,7.60
2023-01-10T10:21:48.875Z,7.50
2023-01-10T10:24:24.759Z,7.40
2023-01-10T10:27:01.809Z,7.40
2023-01-10T10:29:34.571Z,7.30
2023-01-10T10:32:04.272Z,7.10
2023-01-10T10:34:54.394Z,6.90
2023-01-10T10:37:33.051Z,6.90
2023-01-10T10:40:07.733Z,6.90
2023-01-10T10:42:39.915Z,6.90
2023-01-10T10:45:19.272Z,7.00
2023-01-10T10:47:50.871Z,6.90
2023-01-10T10:50:28.370Z,6.90
2023-01-10T10:52:55.416Z,6.80
2023-01-10T10:55:28.257Z,6.80
2023-01-10T10:58:00.193Z,6.90
2023-01-10T11:00:28.895Z,6.90
2023-01-10T11:03:05.523Z,6.80
2023-01-10T11:05:37.512Z,6.90
2023-01-10T11:08:10.384Z,7.00
2023-01-10T11:10:38.387Z,7.00
2023-01-10T11:13:13.103Z,6.80
2023-01-10T11:15:42.323Z,6.70
2023-01-10T11:18:12.015Z,6.60
2023-01-10T11:20:46.487Z,6.50
2023-01-10T11:23:21.469Z,6.50
2023-01-10T11:25:49.249Z,6.50
2023-01-10T11:28:18.454Z,6.60
2023-01-10T11:30:47.553Z,6.70
2023-01-10T11:33:20.136Z,6.70
2023-01-10T11:36:00.874Z,6.60
2023-01-10T11:38:30.346Z,6.50
2023-01-10T11:41:22.399Z,6.60
2023-01-10T11:43:49.363Z,6.70
2023-01-10T11:46:16.132Z,6.80
2023-01-10T11:49:05.610Z,6.90
2023-01-10T11:51:35.301Z,7.10
2023-01-10T11:54:03.714Z,7.30
2023-01-10T11:56:35.010Z,7.60
2023-01-10T11:59:12.370Z,7.40
2023-01-10T12:01:42.201Z,7.20
2023-01-10T12:04:16.125Z,7.10
2023-01-10T12:06:47.344Z,7.10
2023-01-10T12:09:33.001Z,6.90
2023-01-10T12:12:18.677Z,6.90
2023-01-10T12:14:46.124Z,6.80
2023-01-10T12:17:33.910Z,6.80
2023-01-10T12:20:02.529Z,7.00
2023-01-10T12:22:35.400Z,7.10
2023-01-10T12:25:05.335Z,7.10
2023-01-10T12:27:32.640Z,7.30
2023-01-10T12:30:03.175Z,7.40
2023-01-10T12:32:43.961Z,7.60
2023-01-10T12:35:15.435Z,7.90
2023-01-10T12:38:03.468Z,7.90
2023-01-10T12:40:45.305Z,8.00
2023-01-10T12:43:50.771Z,8.10
2023-01-10T12:46:50.206Z,7.70
2023-01-10T12:49:18.652Z,7.70
2023-01-10T12:51:48.265Z,7.80
2023-01-10T12:54:16.345Z,7.90
2023-01-10T12:56:43.710Z,7.80
2023-01-10T12:59:38.081Z,7.70
2023-01-10T13:02:06.997Z,7.80
2023-01-10T13:04:36.774Z,7.80
2023-01-10T13:07:04.282Z,7.80
2023-01-10T13:09:31.450Z,7.80
2023-01-10T13:12:01.417Z,7.90
2023-01-10T13:14:35.572Z,7.80
2023-01-10T13:17:11.584Z,7.80
2023-01-10T13:19:38.509Z,7.80
2023-01-10T13:22:22.135Z,7.70
2023-01-10T13:24:56.232Z,7.70
2023-01-10T13:27:23.817Z,7.70
2023-01-10T13:29:51.215Z,7.80
2023-01-10T13:32:27.080Z,7.90
2023-01-10T13:34:54.497Z,7.90
2023-01-10T13:37:38.326Z,8.00
2023-01-10T13:40:05.757Z,8.30
2023-01-10T13:42:51.218Z,8.50
2023-01-10T13:45:22.669Z,8.50
2023-01-10T13:47:54.593Z,8.50
2023-01-10T13:50:24.524Z,8.50
2023-01-10T13:52:54.711Z,8.30
2023-01-10T13:55:24.384Z,8.30
2023-01-10T13:57:52.893Z,8.10
2023-01-10T14:00:59.684Z,8.10
2023-01-10T14:03:36.747Z,8.20
2023-01-10T14:06:05.303Z,8.40
2023-01-10T14:08:32.755Z,8.50
2023-01-10T14:11:11.243Z,8.50
2023-01-10T14:13:38.566Z,8.40
2023-01-10T14:16:07.221Z,8.40
2023-01-10T14:18:35.884Z,8.50
2023-01-10T14:21:07.835Z,8.50
2023-01-10T14:23:37.256Z,8.40
2023-01-10T14:26:04.506Z,8.30
2023-01-10T14:28:34.919Z,8.10
2023-01-10T14:31:05.008Z,8.10
2023-01-10T14:33:33.048Z,8.10
2023-01-10T14:36:02.418Z,8.00
2023-01-10T14:38:30.537Z,7.80
2023-01-10T14:40:59.044Z,7.70
2023-01-10T14:43:27.372Z,7.70
2023-01-10T14:45:59.987Z,7.60
2023-01-10T14:48:27.459Z,7.50
2023-01-10T14:51:07.434Z,7.40
2023-01-10T14:53:34.372Z,7.30
2023-01-10T14:56:01.350Z,7.20
2023-01-10T14:58:28.189Z,7.20
2023-01-10T15:00:55.764Z,7.20
2023-01-10T15:03:24.818Z,7.10
2023-01-10T15:05:56.866Z,6.90
2023-01-10T15:08:24.943Z,7.00
2023-01-10T15:10:57.069Z,6.90
2023-01-10T15:13:26.348Z,6.90
2023-01-10T15:15:53.424Z,6.90
2023-01-10T15:18:37.763Z,6.80
2023-01-10T15:21:05.272Z,6.80
2023-01-10T15:23:36.096Z,6.50
2023-01-10T15:26:04.905Z,6.50
2023-01-10T15:28:31.800Z,6.30
2023-01-10T15:30:59.481Z,6.30
2023-01-10T15:33:30.361Z,6.20
2023-01-10T15:36:02.728Z,6.30
2023-01-10T15:38:34.105Z,6.20
2023-01-10T15:41:02.714Z,6.30
2023-01-10T15:43:30.777Z,6.20
2023-01-10T15:45:58.573Z,6.10
2023-01-10T15:48:25.630Z,6.10
2023-01-10T15:51:06.679Z,6.00
2023-01-10T15:53:52.179Z,5.90
2023-01-10T15:56:22.254Z,5.80
2023-01-10T15:58:49.434Z,5.90
2023-01-10T16:01:16.752Z,5.80
2023-01-10T16:03:43.732Z,5.70
2023-01-10T16:06:19.339Z,5.60
2023-01-10T16:08:48.452Z,5.40
2023-01-10T16:11:46.132Z,5.40
2023-01-10T16:14:12.961Z,5.30
2023-01-10T16:16:39.957Z,5.40
2023-01-10T16:19:06.957Z,5.40
2023-01-10T16:21:40.566Z,5.30
2023-01-10T16:24:10.809Z,5.40
2023-01-10T16:26:37.800Z,5.30
2023-01-10T16:29:04.582Z,5.40
2023-01-10T16:31:31.468Z,5.40
2023-01-10T16:33:58.282Z,5.50
2023-01-10T16:36:25.193Z,5.40
2023-01-10T16:38:52.067Z,5.60
2023-01-10T16:41:37.583Z,5.60
2023-01-10T16:44:04.415Z,5.50
2023-01-10T16:46:31.330Z,5.60
2023-01-10T16:48:58.202Z,5.60
2023-01-10T16:51:27.588Z,5.50
2023-01-10T16:53:54.719Z,5.60
2023-01-10T16:56:22.694Z,5.40
2023-01-10T16:58:50.193Z,5.60
2023-01-10T17:01:18.664Z,5.60
2023-01-10T17:03:46.110Z,5.60
2023-01-10T17:06:13.863Z,5.60
2023-01-10T17:08:40.885Z,5.70
2023-01-10T17:11:10.573Z,5.80
2023-01-10T17:13:40.209Z,5.80
2023-01-10T17:16:07.444Z,5.80
2023-01-10T17:18:34.381Z,5.80
2023-01-10T17:21:01.183Z,5.80
2023-01-10T17:23:28.080Z,5.70
2023-01-10T17:25:58.614Z,5.70
2023-01-10T17:28:25.655Z,5.80
2023-01-10T17:30:52.497Z,5.80
2023-01-10T17:33:19.405Z,5.80
2023-01-10T17:35:46.348Z,5.80
2023-01-10T17:38:14.755Z,5.80
2023-01-10T17:40:45.208Z,5.80
2023-01-10T17:43:12.899Z,5.80
2023-01-10T17:45:43.759Z,5.80
2023-01-10T17:48:13.029Z,5.90
2023-01-10T17:50:39.892Z,6.00
2023-01-10T17:53:06.759Z,5.90
2023-01-10T17:55:33.682Z,5.90
2023-01-10T17:58:02.798Z,5.90
2023-01-10T18:00:30.415Z,6.00
2023-01-10T18:02:57.264Z,6.00
2023-01-10T18:05:24.147Z,5.90
2023-01-10T18:07:51.015Z,5.90
2023-01-10T18:10:17.977Z,5.80
2023-01-10T18:12:45.469Z,5.90
2023-01-10T18:15:12.373Z,5.80
2023-01-10T18:17:39.408Z,5.80
2023-01-10T18:20:06.769Z,5.80
2023-01-10T18:22:52.129Z,5.80
2023-01-10T18:25:19.445Z,5.80
2023-01-10T18:27:50.375Z,5.90
2023-01-10T18:30:19.269Z,5.90
2023-01-10T18:32:46.127Z,5.90
2023-01-10T18:35:12.998Z,5.90
2023-01-10T18:37:39.862Z,5.80
2023-01-10T18:40:06.986Z,5.80
2023-01-10T18:42:34.687Z,5.80
2023-01-10T18:45:01.705Z,5.90
2023-01-10T18:47:28.712Z,5.80
2023-01-10T18:49:55.529Z,5.80
2023-01-10T18:52:22.365Z,5.80
2023-01-10T18:54:49.389Z,5.80
2023-01-10T18:57:16.345Z,5.90
2023-01-10T18:59:43.163Z,5.90
2023-01-10T19:02:14.145Z,5.90
2023-01-10T19:04:41.233Z,5.90
2023-01-10T19:07:08.541Z,6.00
2023-01-10T19:09:35.496Z,5.90
2023-01-10T19:12:02.279Z,5.90
2023-01-10T19:14:29.151Z,5.90
2023-01-10T19:16:56.116Z,6.00
2023-01-10T19:19:23.533Z,5.90
2023-01-10T19:21:50.491Z,6.00
2023-01-10T19:24:28.842Z,5.90
2023-01-10T19:26:56.207Z,6.00
2023-01-10T19:29:23.449Z,5.80
2023-01-10T19:31:50.882Z,5.90
2023-01-10T19:34:17.896Z,5.90
2023-01-10T19:36:45.556Z,6.00
2023-01-10T19:39:12.541Z,5.90
2023-01-10T19:41:39.571Z,5.90
2023-01-10T19:44:09.180Z,5.90
2023-01-10T19:46:38.407Z,6.00
2023-01-10T19:49:08.276Z,6.10
2023-01-10T19:51:39.553Z,6.10
2023-01-10T19:54:07.443Z,6.10
2023-01-10T19:56:34.908Z,6.00
2023-01-10T19:59:02.083Z,6.20
2023-01-10T20:01:29.618Z,6.10
2023-01-10T20:04:01.717Z,6.10
2023-01-10T20:06:29.715Z,6.10
2023-01-10T20:08:56.972Z,6.10
2023-01-10T20:11:24.796Z,6.00
2023-01-10T20:13:52.262Z,6.00
2023-01-10T20:16:20.286Z,6.00
2023-01-10T20:18:47.921Z,6.00
2023-01-10T20:21:15.813Z,6.10
2023-01-10T20:23:43.103Z,6.10
2023-01-10T20:26:17.671Z,6.00
2023-01-10T20:28:44.901Z,6.00
2023-01-10T20:31:16.379Z,6.10
2023-01-10T20:33:43.287Z,6.10
2023-01-10T20:36:14.833Z,6.10
2023-01-10T20:38:41.828Z,6.10
2023-01-10T20:41:13.227Z,6.00
2023-01-10T20:43:40.098Z,5.80
2023-01-10T20:46:08.103Z,6.00
2023-01-10T20:48:35.097Z,5.90
2023-01-10T20:51:02.386Z,5.80
2023-01-10T20:53:29.221Z,5.70
2023-01-10T20:56:00.885Z,5.70
2023-01-10T20:58:27.833Z,5.70
2023-01-10T21:00:54.605Z,5.60
2023-01-10T21:03:21.528Z,5.50
2023-01-10T21:05:49.154Z,5.60
2023-01-10T21:08:16.908Z,5.70
2023-01-10T21:10:44.461Z,5.70
2023-01-10T21:13:11.442Z,5.70
2023-01-10T21:15:39.106Z,5.70
2023-01-10T21:18:05.974Z,5.60
2023-01-10T21:20:33.168Z,5.70
2023-01-10T21:23:00.054Z,5.70
2023-01-10T21:25:27.177Z,5.80
2023-01-10T21:27:54.051Z,5.80
2023-01-10T21:30:20.938Z,5.80
2023-01-10T21:32:47.762Z,5.80
2023-01-10T21:35:14.777Z,5.70
2023-01-10T21:37:41.631Z,5.60
2023-01-10T21:40:08.817Z,5.60
2023-01-10T21:42:37.927Z,5.60
2023-01-10T21:45:06.732Z,5.50
2023-01-10T21:47:35.910Z,5.50
2023-01-10T21:50:03.683Z,5.60
2023-01-10T21:52:30.634Z,5.50
2023-01-10T21:54:57.953Z,5.60
2023-01-10T21:57:25.312Z,5.60
2023-01-10T21:59:52.357Z,5.60
2023-01-10T22:02:21.069Z,5.70
2023-01-10T22:04:48.768Z,5.60
2023-01-10T22:07:15.781Z,5.70
2023-01-10T22:09:42.685Z,5.80
2023-01-10T22:12:09.605Z,5.80
2023-01-10T22:14:36.522Z,5.80
2023-01-10T22:17:04.139Z,5.70
2023-01-10T22:19:31.054Z,5.70
2023-01-10T22:21:57.906Z,5.80
2023-01-10T22:24:24.828Z,5.80
2023-01-10T22:26:53.955Z,5.80
2023-01-10T22:29:20.926Z,5.70
2023-01-10T22:31:48.804Z,5.80
2023-01-10T22:34:16.371Z,5.70
2023-01-10T22:36:43.250Z,5.80
2023-01-10T22:39:10.062Z,5.70
2023-01-10T22:41:37.557Z,5.80
2023-01-10T22:44:05.313Z,5.80
2023-01-10T22:46:32.588Z,5.80
2023-01-10T22:48:59.936Z,5.80
2023-01-10T22:51:28.612Z,5.90
2023-01-10T22:53:56.147Z,5.90
2023-01-10T22:56:24.161Z,5.90
2023-01-10T22:58:51.355Z,5.80
2023-01-10T23:01:22.015Z,5.80
2023-01-10T23:03:48.926Z,5.90
2023-01-10T23:06:15.839Z,5.90
2023-01-10T23:08:42.948Z,6.10
2023-01-10T23:11:10.536Z,5.90
2023-01-10T23:13:37.389Z,5.90
2023-01-10T23:16:05.932Z,5.90
2023-01-10T23:18:33.017Z,6.00
2023-01-10T23:21:00.174Z,5.90
2023-01-10T23:23:27.608Z,5.90
2023-01-10T23:26:02.542Z,5.90
2023-01-10T23:28:30.110Z,5.80
2023-01-10T23:30:56.976Z,5.70
2023-01-10T23:33:23.815Z,5.80
2023-01-10T23:35:50.631Z,5.80
2023-01-10T23:38:17.569Z,5.80
2023-01-10T23:40:44.975Z,5.80
2023-01-10T23:43:11.966Z,5.80
2023-01-10T23:45:38.796Z,5.90
2023-01-10T23:48:05.961Z,6.00
2023-01-10T23:50:32.863Z,6.00
2023-01-10T23:52:59.680Z,6.00
2023-01-10T23:55:26.547Z,6.10
2023-01-10T23:57:53.441Z,6.00
